sensor_id;sensor_type;location;lat;lon;timestamp;temperature;humidity
3208;DHT22;1616;52.394;9.756;2024-01-30T00:02:06;7.30;99.90
3208;DHT22;1616;52.394;9.756;2024-01-30T00:04:32;7.30;99.90
3208;DHT22;1616;52.394;9.756;2024-01-30T00:06:58;7.30;99.90
3208;DHT22;1616;52.394;9.756;2024-01-30T00:09:24;7.30;99.90
3208;DHT22;1616;52.394;9.756;2024-01-30T00:11:49;7.30;99.90
3208;DHT22;1616;52.394;9.756;2024-01-30T00:14:15;7.30;99.90
3208;DHT22;1616;52.394;9.756;2024-01-30T00:16:41;7.30;99.90
3208;DHT22;1616;52.394;9.756;2024-01-30T00:19:06;7.30;99.90
3208;DHT22;1616;52.394;9.756;2024-01-30T00:21:34;7.40;99.90
3208;DHT22;1616;52.394;9.756;2024-01-30T00:23:59;7.30;99.90
3208;DHT22;1616;52.394;9.756;2024-01-30T00:26:25;7.30;99.90
3208;DHT22;1616;52.394;9.756;2024-01-30T00:28:51;7.30;99.90
3208;DHT22;1616;52.394;9.756;2024-01-30T00:31:16;7.30;99.90
3208;DHT22;1616;52.394;9.756;2024-01-30T00:33:42;7.30;99.90
3208;DHT22;1616;52.394;9.756;2024-01-30T00:36:09;7.20;99.90
3208;DHT22;1616;52.394;9.756;2024-01-30T00:38:35;7.20;99.90
3208;DHT22;1616;52.394;9.756;2024-01-30T00:41:01;7.30;99.90
3208;DHT22;1616;52.394;9.756;2024-01-30T00:43:28;7.20;99.90
3208;DHT22;1616;52.394;9.756;2024-01-30T00:45:54;7.20;99.90
3208;DHT22;1616;52.394;9.756;2024-01-30T00:48:20;7.20;99.90
3208;DHT22;1616;52.394;9.756;2024-01-30T00:50:46;7.10;99.90
3208;DHT22;1616;52.394;9.756;2024-01-30T00:53:12;7.10;99.90
3208;DHT22;1616;52.394;9.756;2024-01-30T00:55:38;7.10;99.90
3208;DHT22;1616;52.394;9.756;2024-01-30T00:58:04;7.10;99.90
3208;DHT22;1616;52.394;9.756;2024-01-30T01:00:31;7.10;99.90
3208;DHT22;1616;52.394;9.756;2024-01-30T01:02:58;7.00;99.90
3208;DHT22;1616;52.394;9.756;2024-01-30T01:05:24;7.00;99.90
3208;DHT22;1616;52.394;9.756;2024-01-30T01:07:50;7.10;99.90
3208;DHT22;1616;52.394;9.756;2024-01-30T01:10:19;7.00;99.90
3208;DHT22;1616;52.394;9.756;2024-01-30T01:12:45;7.00;99.90
3208;DHT22;1616;52.394;9.756;2024-01-30T01:15:11;7.00;99.90
3208;DHT22;1616;52.394;9.756;2024-01-30T01:17:37;7.00;99.90
3208;DHT22;1616;52.394;9.756;2024-01-30T01:20:03;7.00;99.90
3208;DHT22;1616;52.394;9.756;2024-01-30T01:22:31;7.00;99.90
3208;DHT22;1616;52.394;9.756;2024-01-30T01:24:58;7.10;99.90
3208;DHT22;1616;52.394;9.756;2024-01-30T01:27:23;7.10;99.90
3208;DHT22;1616;52.394;9.756;2024-01-30T01:29:49;7.20;99.90
3208;DHT22;1616;52.394;9.756;2024-01-30T01:32:15;7.30;99.90
3208;DHT22;1616;52.394;9.756;2024-01-30T01:34:40;7.30;99.90
3208;DHT22;1616;52.394;9.756;2024-01-30T01:37:06;7.30;99.90
3208;DHT22;1616;52.394;9.756;2024-01-30T01:39:33;7.40;99.90
3208;DHT22;1616;52.394;9.756;2024-01-30T01:41:59;7.40;99.90
3208;DHT22;1616;52.394;9.756;2024-01-30T01:44:25;7.50;99.90
3208;DHT22;1616;52.394;9.756;2024-01-30T01:46:51;7.40;99.90
3208;DHT22;1616;52.394;9.756;2024-01-30T01:49:19;7.30;99.90
3208;DHT22;1616;52.394;9.756;2024-01-30T01:51:47;7.40;99.90
3208;DHT22;1616;52.394;9.756;2024-01-30T01:54:14;7.40;99.90
3208;DHT22;1616;52.394;9.756;2024-01-30T01:56:40;7.50;99.90
3208;DHT22;1616;52.394;9.756;2024-01-30T01:59:08;7.50;99.90
3208;DHT22;1616;52.394;9.756;2024-01-30T02:01:38;7.40;99.90
3208;DHT22;1616;52.394;9.756;2024-01-30T02:04:07;7.50;99.90
3208;DHT22;1616;52.394;9.756;2024-01-30T02:06:36;7.50;99.90
3208;DHT22;1616;52.394;9.756;2024-01-30T02:09:03;7.50;99.90
3208;DHT22;1616;52.394;9.756;2024-01-30T02:11:30;7.50;99.90
3208;DHT22;1616;52.394;9.756;2024-01-30T02:13:56;7.50;99.90
3208;DHT22;1616;52.394;9.756;2024-01-30T02:16:22;7.50;99.90
3208;DHT22;1616;52.394;9.756;2024-01-30T02:18:47;7.50;99.90
3208;DHT22;1616;52.394;9.756;2024-01-30T02:21:16;7.50;99.90
3208;DHT22;1616;52.394;9.756;2024-01-30T02:23:47;7.50;99.90
3208;DHT22;1616;52.394;9.756;2024-01-30T02:26:12;7.50;99.90
3208;DHT22;1616;52.394;9.756;2024-01-30T02:28:38;7.50;99.90
3208;DHT22;1616;52.394;9.756;2024-01-30T02:31:04;7.50;99.90
3208;DHT22;1616;52.394;9.756;2024-01-30T02:33:30;7.50;99.90
3208;DHT22;1616;52.394;9.756;2024-01-30T02:35:57;7.50;99.90
3208;DHT22;1616;52.394;9.756;2024-01-30T02:38:23;7.50;99.90
3208;DHT22;1616;52.394;9.756;2024-01-30T02:40:49;7.50;99.90
3208;DHT22;1616;52.394;9.756;2024-01-30T02:43:16;7.50;99.90
3208;DHT22;1616;52.394;9.756;2024-01-30T02:45:42;7.50;99.90
3208;DHT22;1616;52.394;9.756;2024-01-30T02:48:07;7.50;99.90
3208;DHT22;1616;52.394;9.756;2024-01-30T02:50:33;7.50;99.90
3208;DHT22;1616;52.394;9.756;2024-01-30T02:53:00;7.60;99.90
3208;DHT22;1616;52.394;9.756;2024-01-30T02:55:26;7.60;99.90
3208;DHT22;1616;52.394;9.756;2024-01-30T02:57:52;7.60;99.90
3208;DHT22;1616;52.394;9.756;2024-01-30T03:00:19;7.60;99.90
3208;DHT22;1616;52.394;9.756;2024-01-30T03:02:45;7.60;99.90
3208;DHT22;1616;52.394;9.756;2024-01-30T03:05:10;7.60;99.90
3208;DHT22;1616;52.394;9.756;2024-01-30T03:07:36;7.60;99.90
3208;DHT22;1616;52.394;9.756;2024-01-30T03:10:02;7.60;99.90
3208;DHT22;1616;52.394;9.756;2024-01-30T03:12:27;7.70;99.90
3208;DHT22;1616;52.394;9.756;2024-01-30T03:14:53;7.70;99.90
3208;DHT22;1616;52.394;9.756;2024-01-30T03:17:18;7.70;99.90
3208;DHT22;1616;52.394;9.756;2024-01-30T03:19:44;7.70;99.90
3208;DHT22;1616;52.394;9.756;2024-01-30T03:22:09;7.70;99.90
3208;DHT22;1616;52.394;9.756;2024-01-30T03:24:35;7.70;99.90
3208;DHT22;1616;52.394;9.756;2024-01-30T03:27:01;7.70;99.90
3208;DHT22;1616;52.394;9.756;2024-01-30T03:29:27;7.60;99.90
3208;DHT22;1616;52.394;9.756;2024-01-30T03:31:52;7.60;99.90
3208;DHT22;1616;52.394;9.756;2024-01-30T03:34:18;7.60;99.90
3208;DHT22;1616;52.394;9.756;2024-01-30T03:36:43;7.60;99.90
3208;DHT22;1616;52.394;9.756;2024-01-30T03:39:09;7.60;99.90
3208;DHT22;1616;52.394;9.756;2024-01-30T03:41:34;7.60;99.90
3208;DHT22;1616;52.394;9.756;2024-01-30T03:44:00;7.60;99.90
3208;DHT22;1616;52.394;9.756;2024-01-30T03:46:26;7.60;99.90
3208;DHT22;1616;52.394;9.756;2024-01-30T03:48:51;7.60;99.90
3208;DHT22;1616;52.394;9.756;2024-01-30T03:51:17;7.60;99.90
3208;DHT22;1616;52.394;9.756;2024-01-30T03:53:43;7.60;99.90
3208;DHT22;1616;52.394;9.756;2024-01-30T03:56:09;7.60;99.90
3208;DHT22;1616;52.394;9.756;2024-01-30T03:58:35;7.60;99.90
3208;DHT22;1616;52.394;9.756;2024-01-30T04:01:01;7.60;99.90
3208;DHT22;1616;52.394;9.756;2024-01-30T04:03:27;7.60;99.90
3208;DHT22;1616;52.394;9.756;2024-01-30T04:05:53;7.50;99.90
3208;DHT22;1616;52.394;9.756;2024-01-30T04:08:19;7.50;99.90
3208;DHT22;1616;52.394;9.756;2024-01-30T04:10:46;7.50;99.90
3208;DHT22;1616;52.394;9.756;2024-01-30T04:13:12;7.50;99.90
3208;DHT22;1616;52.394;9.756;2024-01-30T04:15:38;7.50;99.90
3208;DHT22;1616;52.394;9.756;2024-01-30T04:18:04;7.50;99.90
3208;DHT22;1616;52.394;9.756;2024-01-30T04:20:30;7.50;99.90
3208;DHT22;1616;52.394;9.756;2024-01-30T04:22:56;7.40;99.90
3208;DHT22;1616;52.394;9.756;2024-01-30T04:25:21;7.40;99.90
3208;DHT22;1616;52.394;9.756;2024-01-30T04:27:47;7.40;99.90
3208;DHT22;1616;52.394;9.756;2024-01-30T04:30:14;7.30;99.90
3208;DHT22;1616;52.394;9.756;2024-01-30T04:32:39;7.30;99.90
3208;DHT22;1616;52.394;9.756;2024-01-30T04:35:05;7.30;99.90
3208;DHT22;1616;52.394;9.756;2024-01-30T04:37:31;7.30;99.90
3208;DHT22;1616;52.394;9.756;2024-01-30T04:39:57;7.20;99.90
3208;DHT22;1616;52.394;9.756;2024-01-30T04:42:22;7.20;99.90
3208;DHT22;1616;52.394;9.756;2024-01-30T04:44:49;7.20;99.90
3208;DHT22;1616;52.394;9.756;2024-01-30T04:47:14;7.10;99.90
3208;DHT22;1616;52.394;9.756;2024-01-30T04:49:40;7.10;99.90
3208;DHT22;1616;52.394;9.756;2024-01-30T04:52:07;7.10;99.90
3208;DHT22;1616;52.394;9.756;2024-01-30T04:54:33;7.00;99.90
3208;DHT22;1616;52.394;9.756;2024-01-30T04:56:59;7.00;99.90
3208;DHT22;1616;52.394;9.756;2024-01-30T04:59:25;7.00;99.90
3208;DHT22;1616;52.394;9.756;2024-01-30T05:01:50;6.90;99.90
3208;DHT22;1616;52.394;9.756;2024-01-30T05:04:16;6.90;99.90
3208;DHT22;1616;52.394;9.756;2024-01-30T05:06:42;6.90;99.90
3208;DHT22;1616;52.394;9.756;2024-01-30T05:09:08;6.80;99.90
3208;DHT22;1616;52.394;9.756;2024-01-30T05:11:38;6.80;99.90
3208;DHT22;1616;52.394;9.756;2024-01-30T05:14:05;6.80;99.90
3208;DHT22;1616;52.394;9.756;2024-01-30T05:16:32;6.80;99.90
3208;DHT22;1616;52.394;9.756;2024-01-30T05:18:58;6.80;99.90
3208;DHT22;1616;52.394;9.756;2024-01-30T05:21:23;6.80;99.90
3208;DHT22;1616;52.394;9.756;2024-01-30T05:23:49;6.70;99.90
3208;DHT22;1616;52.394;9.756;2024-01-30T05:26:15;6.70;99.90
3208;DHT22;1616;52.394;9.756;2024-01-30T05:28:40;6.70;99.90
3208;DHT22;1616;52.394;9.756;2024-01-30T05:31:06;6.70;99.90
3208;DHT22;1616;52.394;9.756;2024-01-30T05:33:32;6.60;99.90
3208;DHT22;1616;52.394;9.756;2024-01-30T05:35:57;6.60;99.90
3208;DHT22;1616;52.394;9.756;2024-01-30T05:38:23;6.60;99.90
3208;DHT22;1616;52.394;9.756;2024-01-30T05:40:49;6.60;99.90
3208;DHT22;1616;52.394;9.756;2024-01-30T05:43:14;6.60;99.90
3208;DHT22;1616;52.394;9.756;2024-01-30T05:45:40;6.50;99.90
3208;DHT22;1616;52.394;9.756;2024-01-30T05:48:06;6.50;99.90
3208;DHT22;1616;52.394;9.756;2024-01-30T05:50:31;6.50;99.90
3208;DHT22;1616;52.394;9.756;2024-01-30T05:52:58;6.50;99.90
3208;DHT22;1616;52.394;9.756;2024-01-30T05:55:24;6.50;99.90
3208;DHT22;1616;52.394;9.756;2024-01-30T05:57:50;6.50;99.90
3208;DHT22;1616;52.394;9.756;2024-01-30T06:00:16;6.40;99.90
3208;DHT22;1616;52.394;9.756;2024-01-30T06:02:42;6.50;99.90
3208;DHT22;1616;52.394;9.756;2024-01-30T06:05:08;6.50;99.90
3208;DHT22;1616;52.394;9.756;2024-01-30T06:07:34;6.40;99.90
3208;DHT22;1616;52.394;9.756;2024-01-30T06:09:59;6.40;99.90
3208;DHT22;1616;52.394;9.756;2024-01-30T06:12:29;6.40;99.90
3208;DHT22;1616;52.394;9.756;2024-01-30T06:14:55;6.40;99.90
3208;DHT22;1616;52.394;9.756;2024-01-30T06:17:23;6.40;99.90
3208;DHT22;1616;52.394;9.756;2024-01-30T06:19:49;6.40;99.90
3208;DHT22;1616;52.394;9.756;2024-01-30T06:22:15;6.40;99.90
3208;DHT22;1616;52.394;9.756;2024-01-30T06:24:41;6.50;99.90
3208;DHT22;1616;52.394;9.756;2024-01-30T06:27:07;6.40;99.90
3208;DHT22;1616;52.394;9.756;2024-01-30T06:29:32;6.40;99.90
3208;DHT22;1616;52.394;9.756;2024-01-30T06:31:58;6.40;99.90
3208;DHT22;1616;52.394;9.756;2024-01-30T06:34:24;6.40;99.90
3208;DHT22;1616;52.394;9.756;2024-01-30T06:36:51;6.40;99.90
3208;DHT22;1616;52.394;9.756;2024-01-30T06:39:17;6.40;99.90
3208;DHT22;1616;52.394;9.756;2024-01-30T06:41:43;6.40;99.90
3208;DHT22;1616;52.394;9.756;2024-01-30T06:44:09;6.40;99.90
3208;DHT22;1616;52.394;9.756;2024-01-30T06:46:35;6.40;99.90
3208;DHT22;1616;52.394;9.756;2024-01-30T06:49:01;6.50;99.90
3208;DHT22;1616;52.394;9.756;2024-01-30T06:51:27;6.50;99.90
3208;DHT22;1616;52.394;9.756;2024-01-30T06:53:53;6.40;99.90
3208;DHT22;1616;52.394;9.756;2024-01-30T06:56:19;6.50;99.90
3208;DHT22;1616;52.394;9.756;2024-01-30T06:58:48;6.50;99.90
3208;DHT22;1616;52.394;9.756;2024-01-30T07:01:15;6.50;99.90
3208;DHT22;1616;52.394;9.756;2024-01-30T07:03:40;6.50;99.90
3208;DHT22;1616;52.394;9.756;2024-01-30T07:06:06;6.50;99.90
3208;DHT22;1616;52.394;9.756;2024-01-30T07:08:32;6.50;99.90
3208;DHT22;1616;52.394;9.756;2024-01-30T07:10:57;6.50;99.90
3208;DHT22;1616;52.394;9.756;2024-01-30T07:13:23;6.50;99.90
3208;DHT22;1616;52.394;9.756;2024-01-30T07:15:48;6.50;99.90
3208;DHT22;1616;52.394;9.756;2024-01-30T07:18:14;6.60;99.90
3208;DHT22;1616;52.394;9.756;2024-01-30T07:20:40;6.60;99.90
3208;DHT22;1616;52.394;9.756;2024-01-30T07:23:14;6.50;99.90
3208;DHT22;1616;52.394;9.756;2024-01-30T07:25:43;6.60;99.90
3208;DHT22;1616;52.394;9.756;2024-01-30T07:28:10;6.60;99.90
3208;DHT22;1616;52.394;9.756;2024-01-30T07:30:36;6.70;99.90
3208;DHT22;1616;52.394;9.756;2024-01-30T07:33:02;6.80;99.90
3208;DHT22;1616;52.394;9.756;2024-01-30T07:35:28;6.80;99.90
3208;DHT22;1616;52.394;9.756;2024-01-30T07:37:53;6.90;99.90
3208;DHT22;1616;52.394;9.756;2024-01-30T07:40:19;7.00;99.90
3208;DHT22;1616;52.394;9.756;2024-01-30T07:42:45;7.10;99.90
3208;DHT22;1616;52.394;9.756;2024-01-30T07:45:11;7.20;99.90
3208;DHT22;1616;52.394;9.756;2024-01-30T07:47:36;7.30;99.90
3208;DHT22;1616;52.394;9.756;2024-01-30T07:50:02;7.40;99.90
3208;DHT22;1616;52.394;9.756;2024-01-30T07:52:28;7.50;99.90
3208;DHT22;1616;52.394;9.756;2024-01-30T07:54:54;7.50;99.90
3208;DHT22;1616;52.394;9.756;2024-01-30T07:57:20;7.60;99.90
3208;DHT22;1616;52.394;9.756;2024-01-30T07:59:46;7.70;99.90
3208;DHT22;1616;52.394;9.756;2024-01-30T08:02:12;7.70;99.90
3208;DHT22;1616;52.394;9.756;2024-01-30T08:04:38;7.80;99.90
3208;DHT22;1616;52.394;9.756;2024-01-30T08:07:04;7.90;99.90
3208;DHT22;1616;52.394;9.756;2024-01-30T08:09:30;8.00;99.90
3208;DHT22;1616;52.394;9.756;2024-01-30T08:11:56;8.10;99.90
3208;DHT22;1616;52.394;9.756;2024-01-30T08:14:21;8.10;99.90
3208;DHT22;1616;52.394;9.756;2024-01-30T08:16:47;8.20;99.90
3208;DHT22;1616;52.394;9.756;2024-01-30T08:19:14;8.30;99.90
3208;DHT22;1616;52.394;9.756;2024-01-30T08:21:40;8.40;99.90
3208;DHT22;1616;52.394;9.756;2024-01-30T08:24:06;8.40;99.90
3208;DHT22;1616;52.394;9.756;2024-01-30T08:26:32;8.50;99.90
3208;DHT22;1616;52.394;9.756;2024-01-30T08:28:58;8.50;99.90
3208;DHT22;1616;52.394;9.756;2024-01-30T08:31:24;8.60;99.90
3208;DHT22;1616;52.394;9.756;2024-01-30T08:33:49;8.60;99.90
3208;DHT22;1616;52.394;9.756;2024-01-30T08:36:16;8.70;99.90
3208;DHT22;1616;52.394;9.756;2024-01-30T08:38:42;8.70;99.90
3208;DHT22;1616;52.394;9.756;2024-01-30T08:41:08;8.70;99.90
3208;DHT22;1616;52.394;9.756;2024-01-30T08:43:34;8.80;99.90
3208;DHT22;1616;52.394;9.756;2024-01-30T08:46:00;8.80;99.90
3208;DHT22;1616;52.394;9.756;2024-01-30T08:48:26;8.90;99.90
3208;DHT22;1616;52.394;9.756;2024-01-30T08:50:52;9.00;99.90
3208;DHT22;1616;52.394;9.756;2024-01-30T08:53:18;9.00;99.90
3208;DHT22;1616;52.394;9.756;2024-01-30T08:55:44;9.10;99.90
3208;DHT22;1616;52.394;9.756;2024-01-30T08:58:10;9.10;99.90
3208;DHT22;1616;52.394;9.756;2024-01-30T09:00:36;9.20;99.90
3208;DHT22;1616;52.394;9.756;2024-01-30T09:03:03;9.30;99.90
3208;DHT22;1616;52.394;9.756;2024-01-30T09:05:29;9.40;99.90
3208;DHT22;1616;52.394;9.756;2024-01-30T09:07:54;9.50;99.90
3208;DHT22;1616;52.394;9.756;2024-01-30T09:10:20;9.50;99.90
3208;DHT22;1616;52.394;9.756;2024-01-30T09:12:47;9.60;99.90
3208;DHT22;1616;52.394;9.756;2024-01-30T09:15:12;9.70;99.90
3208;DHT22;1616;52.394;9.756;2024-01-30T09:17:38;9.80;99.90
3208;DHT22;1616;52.394;9.756;2024-01-30T09:20:05;9.90;99.90
3208;DHT22;1616;52.394;9.756;2024-01-30T09:22:35;10.00;99.90
3208;DHT22;1616;52.394;9.756;2024-01-30T09:25:00;10.10;99.90
3208;DHT22;1616;52.394;9.756;2024-01-30T09:27:26;10.30;99.90
3208;DHT22;1616;52.394;9.756;2024-01-30T09:29:51;10.40;99.90
3208;DHT22;1616;52.394;9.756;2024-01-30T09:32:17;10.60;99.90
3208;DHT22;1616;52.394;9.756;2024-01-30T09:34:43;10.80;99.90
3208;DHT22;1616;52.394;9.756;2024-01-30T09:37:09;11.00;99.90
3208;DHT22;1616;52.394;9.756;2024-01-30T09:39:34;11.20;99.90
3208;DHT22;1616;52.394;9.756;2024-01-30T09:42:36;11.30;99.90
3208;DHT22;1616;52.394;9.756;2024-01-30T09:45:03;11.50;99.90
3208;DHT22;1616;52.394;9.756;2024-01-30T09:47:39;11.80;99.90
3208;DHT22;1616;52.394;9.756;2024-01-30T09:50:06;12.00;99.90
3208;DHT22;1616;52.394;9.756;2024-01-30T09:52:32;12.20;98.70
3208;DHT22;1616;52.394;9.756;2024-01-30T09:55:00;12.30;99.70
3208;DHT22;1616;52.394;9.756;2024-01-30T09:57:26;12.40;97.30
3208;DHT22;1616;52.394;9.756;2024-01-30T09:59:52;12.50;96.70
3208;DHT22;1616;52.394;9.756;2024-01-30T10:02:20;12.50;95.80
3208;DHT22;1616;52.394;9.756;2024-01-30T10:04:49;12.40;95.00
3208;DHT22;1616;52.394;9.756;2024-01-30T10:07:16;12.40;94.60
3208;DHT22;1616;52.394;9.756;2024-01-30T10:09:42;12.40;95.90
3208;DHT22;1616;52.394;9.756;2024-01-30T10:12:11;12.40;94.50
3208;DHT22;1616;52.394;9.756;2024-01-30T10:14:41;12.30;94.30
3208;DHT22;1616;52.394;9.756;2024-01-30T10:17:08;12.40;94.30
3208;DHT22;1616;52.394;9.756;2024-01-30T10:19:36;12.50;94.40
3208;DHT22;1616;52.394;9.756;2024-01-30T10:22:05;12.60;93.90
3208;DHT22;1616;52.394;9.756;2024-01-30T10:24:33;12.70;93.30
3208;DHT22;1616;52.394;9.756;2024-01-30T10:26:59;12.70;92.80
3208;DHT22;1616;52.394;9.756;2024-01-30T10:29:25;12.90;92.70
3208;DHT22;1616;52.394;9.756;2024-01-30T10:32:04;13.00;92.50
3208;DHT22;1616;52.394;9.756;2024-01-30T10:34:31;13.10;91.90
3208;DHT22;1616;52.394;9.756;2024-01-30T10:39:42;13.40;90.90
3208;DHT22;1616;52.394;9.756;2024-01-30T10:42:16;13.40;90.20
3208;DHT22;1616;52.394;9.756;2024-01-30T10:47:29;13.20;88.60
3208;DHT22;1616;52.394;9.756;2024-01-30T10:49:56;13.10;89.00
3208;DHT22;1616;52.394;9.756;2024-01-30T10:52:23;13.10;89.70
3208;DHT22;1616;52.394;9.756;2024-01-30T10:54:54;13.10;90.20
3208;DHT22;1616;52.394;9.756;2024-01-30T10:57:23;13.20;90.70
3208;DHT22;1616;52.394;9.756;2024-01-30T10:59:50;13.20;90.00
3208;DHT22;1616;52.394;9.756;2024-01-30T11:02:17;13.30;89.80
3208;DHT22;1616;52.394;9.756;2024-01-30T11:04:43;13.30;89.60
3208;DHT22;1616;52.394;9.756;2024-01-30T11:07:15;13.30;89.60
3208;DHT22;1616;52.394;9.756;2024-01-30T11:09:49;13.20;89.30
3208;DHT22;1616;52.394;9.756;2024-01-30T11:12:15;13.20;89.20
3208;DHT22;1616;52.394;9.756;2024-01-30T11:14:41;13.10;88.90
3208;DHT22;1616;52.394;9.756;2024-01-30T11:17:09;13.00;89.00
3208;DHT22;1616;52.394;9.756;2024-01-30T11:19:38;12.90;88.80
3208;DHT22;1616;52.394;9.756;2024-01-30T11:22:06;12.70;89.30
3208;DHT22;1616;52.394;9.756;2024-01-30T11:24:39;12.60;90.00
3208;DHT22;1616;52.394;9.756;2024-01-30T11:27:09;12.50;90.30
3208;DHT22;1616;52.394;9.756;2024-01-30T11:29:36;12.40;90.60
3208;DHT22;1616;52.394;9.756;2024-01-30T11:32:02;12.40;90.90
3208;DHT22;1616;52.394;9.756;2024-01-30T11:34:32;12.30;91.20
3208;DHT22;1616;52.394;9.756;2024-01-30T11:37:06;12.40;91.50
3208;DHT22;1616;52.394;9.756;2024-01-30T11:39:35;12.30;91.40
3208;DHT22;1616;52.394;9.756;2024-01-30T11:42:06;12.30;91.50
3208;DHT22;1616;52.394;9.756;2024-01-30T11:44:33;12.30;91.60
3208;DHT22;1616;52.394;9.756;2024-01-30T11:46:59;12.30;91.60
3208;DHT22;1616;52.394;9.756;2024-01-30T11:49:25;12.20;91.70
3208;DHT22;1616;52.394;9.756;2024-01-30T11:51:51;12.20;91.80
3208;DHT22;1616;52.394;9.756;2024-01-30T11:54:18;12.20;92.00
3208;DHT22;1616;52.394;9.756;2024-01-30T11:56:44;12.20;92.40
3208;DHT22;1616;52.394;9.756;2024-01-30T11:59:10;12.30;92.70
3208;DHT22;1616;52.394;9.756;2024-01-30T12:01:36;12.40;92.80
3208;DHT22;1616;52.394;9.756;2024-01-30T12:04:02;12.60;93.10
3208;DHT22;1616;52.394;9.756;2024-01-30T12:06:28;13.00;93.40
3208;DHT22;1616;52.394;9.756;2024-01-30T12:09:02;13.40;93.10
3208;DHT22;1616;52.394;9.756;2024-01-30T12:11:33;13.90;91.80
3208;DHT22;1616;52.394;9.756;2024-01-30T12:14:08;14.20;90.90
3208;DHT22;1616;52.394;9.756;2024-01-30T12:16:34;14.50;89.30
3208;DHT22;1616;52.394;9.756;2024-01-30T12:19:00;14.90;88.70
3208;DHT22;1616;52.394;9.756;2024-01-30T12:21:28;15.30;87.00
3208;DHT22;1616;52.394;9.756;2024-01-30T12:23:54;15.60;87.30
3208;DHT22;1616;52.394;9.756;2024-01-30T12:26:19;15.90;86.20
3208;DHT22;1616;52.394;9.756;2024-01-30T12:28:48;16.20;84.30
3208;DHT22;1616;52.394;9.756;2024-01-30T12:31:15;16.40;81.70
3208;DHT22;1616;52.394;9.756;2024-01-30T12:33:41;16.70;80.80
3208;DHT22;1616;52.394;9.756;2024-01-30T12:36:07;16.90;78.80
3208;DHT22;1616;52.394;9.756;2024-01-30T12:38:33;17.10;77.10
3208;DHT22;1616;52.394;9.756;2024-01-30T12:40:58;17.10;75.70
3208;DHT22;1616;52.394;9.756;2024-01-30T12:43:25;17.10;75.30
3208;DHT22;1616;52.394;9.756;2024-01-30T12:45:52;17.00;75.10
3208;DHT22;1616;52.394;9.756;2024-01-30T12:48:18;17.00;74.60
3208;DHT22;1616;52.394;9.756;2024-01-30T12:50:44;16.90;74.70
3208;DHT22;1616;52.394;9.756;2024-01-30T12:53:09;16.80;74.50
3208;DHT22;1616;52.394;9.756;2024-01-30T12:55:35;16.60;74.50
3208;DHT22;1616;52.394;9.756;2024-01-30T12:58:01;16.40;74.70
3208;DHT22;1616;52.394;9.756;2024-01-30T13:00:26;16.20;75.00
3208;DHT22;1616;52.394;9.756;2024-01-30T13:02:52;16.00;75.50
3208;DHT22;1616;52.394;9.756;2024-01-30T13:05:18;15.90;78.90
3208;DHT22;1616;52.394;9.756;2024-01-30T13:07:44;15.70;76.30
3208;DHT22;1616;52.394;9.756;2024-01-30T13:10:10;15.50;76.60
3208;DHT22;1616;52.394;9.756;2024-01-30T13:12:36;15.30;77.70
3208;DHT22;1616;52.394;9.756;2024-01-30T13:15:02;15.20;78.00
3208;DHT22;1616;52.394;9.756;2024-01-30T13:17:31;15.00;78.70
3208;DHT22;1616;52.394;9.756;2024-01-30T13:19:56;14.90;79.40
3208;DHT22;1616;52.394;9.756;2024-01-30T13:22:24;14.80;80.10
3208;DHT22;1616;52.394;9.756;2024-01-30T13:24:50;14.60;80.40
3208;DHT22;1616;52.394;9.756;2024-01-30T13:27:16;14.60;80.90
3208;DHT22;1616;52.394;9.756;2024-01-30T13:29:41;14.40;81.90
3208;DHT22;1616;52.394;9.756;2024-01-30T13:32:07;14.30;82.20
3208;DHT22;1616;52.394;9.756;2024-01-30T13:34:33;14.10;82.60
3208;DHT22;1616;52.394;9.756;2024-01-30T13:36:58;14.10;84.00
3208;DHT22;1616;52.394;9.756;2024-01-30T13:39:24;14.00;84.70
3208;DHT22;1616;52.394;9.756;2024-01-30T13:41:50;14.00;85.60
3208;DHT22;1616;52.394;9.756;2024-01-30T13:44:16;13.90;85.80
3208;DHT22;1616;52.394;9.756;2024-01-30T13:46:46;13.80;85.70
3208;DHT22;1616;52.394;9.756;2024-01-30T13:49:12;13.70;85.40
3208;DHT22;1616;52.394;9.756;2024-01-30T13:51:38;13.60;85.50
3208;DHT22;1616;52.394;9.756;2024-01-30T13:54:03;13.60;85.30
3208;DHT22;1616;52.394;9.756;2024-01-30T13:56:29;13.50;85.30
3208;DHT22;1616;52.394;9.756;2024-01-30T13:58:55;13.40;85.90
3208;DHT22;1616;52.394;9.756;2024-01-30T14:01:22;13.40;87.40
3208;DHT22;1616;52.394;9.756;2024-01-30T14:03:48;13.40;90.40
3208;DHT22;1616;52.394;9.756;2024-01-30T14:06:13;13.30;88.90
3208;DHT22;1616;52.394;9.756;2024-01-30T14:08:39;13.30;89.00
3208;DHT22;1616;52.394;9.756;2024-01-30T14:11:05;13.30;89.40
3208;DHT22;1616;52.394;9.756;2024-01-30T14:13:31;13.20;90.00
3208;DHT22;1616;52.394;9.756;2024-01-30T14:15:58;13.20;90.10
3208;DHT22;1616;52.394;9.756;2024-01-30T14:18:24;13.10;90.10
3208;DHT22;1616;52.394;9.756;2024-01-30T14:20:51;13.00;90.40
3208;DHT22;1616;52.394;9.756;2024-01-30T14:23:17;13.00;90.40
3208;DHT22;1616;52.394;9.756;2024-01-30T14:25:43;12.90;90.60
3208;DHT22;1616;52.394;9.756;2024-01-30T14:28:09;12.90;90.70
3208;DHT22;1616;52.394;9.756;2024-01-30T14:30:34;12.80;90.90
3208;DHT22;1616;52.394;9.756;2024-01-30T14:33:01;12.80;91.10
3208;DHT22;1616;52.394;9.756;2024-01-30T14:35:27;12.80;91.30
3208;DHT22;1616;52.394;9.756;2024-01-30T14:37:53;12.60;91.40
3208;DHT22;1616;52.394;9.756;2024-01-30T14:40:19;12.60;91.60
3208;DHT22;1616;52.394;9.756;2024-01-30T14:42:45;12.60;91.80
3208;DHT22;1616;52.394;9.756;2024-01-30T14:45:11;12.60;92.10
3208;DHT22;1616;52.394;9.756;2024-01-30T14:47:37;12.60;92.20
3208;DHT22;1616;52.394;9.756;2024-01-30T14:50:04;12.50;92.50
3208;DHT22;1616;52.394;9.756;2024-01-30T14:52:31;12.50;92.70
3208;DHT22;1616;52.394;9.756;2024-01-30T14:54:57;12.40;92.80
3208;DHT22;1616;52.394;9.756;2024-01-30T14:57:24;12.40;93.00
3208;DHT22;1616;52.394;9.756;2024-01-30T14:59:50;12.40;93.20
3208;DHT22;1616;52.394;9.756;2024-01-30T15:02:15;12.40;93.30
3208;DHT22;1616;52.394;9.756;2024-01-30T15:04:41;12.40;93.40
3208;DHT22;1616;52.394;9.756;2024-01-30T15:07:07;12.40;93.40
3208;DHT22;1616;52.394;9.756;2024-01-30T15:09:32;12.40;93.60
3208;DHT22;1616;52.394;9.756;2024-01-30T15:11:58;12.40;94.00
3208;DHT22;1616;52.394;9.756;2024-01-30T15:14:26;12.40;94.30
3208;DHT22;1616;52.394;9.756;2024-01-30T15:16:52;12.30;94.00
3208;DHT22;1616;52.394;9.756;2024-01-30T15:19:17;12.30;94.10
3208;DHT22;1616;52.394;9.756;2024-01-30T15:21:43;12.30;94.40
3208;DHT22;1616;52.394;9.756;2024-01-30T15:24:09;12.30;94.60
3208;DHT22;1616;52.394;9.756;2024-01-30T15:26:35;12.30;94.80
3208;DHT22;1616;52.394;9.756;2024-01-30T15:29:00;12.30;94.90
3208;DHT22;1616;52.394;9.756;2024-01-30T15:31:26;12.30;95.20
3208;DHT22;1616;52.394;9.756;2024-01-30T15:33:51;12.30;95.50
3208;DHT22;1616;52.394;9.756;2024-01-30T15:36:17;12.30;95.60
3208;DHT22;1616;52.394;9.756;2024-01-30T15:38:43;12.30;95.60
3208;DHT22;1616;52.394;9.756;2024-01-30T15:41:09;12.30;96.00
3208;DHT22;1616;52.394;9.756;2024-01-30T15:43:34;12.30;96.10
3208;DHT22;1616;52.394;9.756;2024-01-30T15:46:01;12.30;96.50
3208;DHT22;1616;52.394;9.756;2024-01-30T15:48:28;12.30;96.50
3208;DHT22;1616;52.394;9.756;2024-01-30T15:50:54;12.30;96.70
3208;DHT22;1616;52.394;9.756;2024-01-30T15:53:20;12.30;97.20
3208;DHT22;1616;52.394;9.756;2024-01-30T15:55:51;12.40;98.20
3208;DHT22;1616;52.394;9.756;2024-01-30T15:58:17;12.50;99.90
3208;DHT22;1616;52.394;9.756;2024-01-30T16:00:43;12.70;99.90
3208;DHT22;1616;52.394;9.756;2024-01-30T16:03:08;12.80;99.90
3208;DHT22;1616;52.394;9.756;2024-01-30T16:05:34;12.90;99.70
3208;DHT22;1616;52.394;9.756;2024-01-30T16:07:59;13.00;99.50
3208;DHT22;1616;52.394;9.756;2024-01-30T16:10:25;13.00;99.90
3208;DHT22;1616;52.394;9.756;2024-01-30T16:12:51;13.20;99.90